createdAt,value
2023-01-13T00:00:27.475Z,17.00
2023-01-13T00:04:43.724Z,16.62
2023-01-13T00:09:00.126Z,18.50
2023-01-13T00:13:16.565Z,16.35
2023-01-13T00:17:32.787Z,16.15
2023-01-13T00:21:49.037Z,17.62
2023-01-13T00:26:10.750Z,17.45
2023-01-13T00:30:28.020Z,17.02
2023-01-13T00:34:44.408Z,17.25
2023-01-13T00:39:00.847Z,19.60
2023-01-13T00:43:23.021Z,19.02
2023-01-13T00:47:39.312Z,17.42
2023-01-13T00:51:55.619Z,17.80
2023-01-13T00:56:22.014Z,19.10
2023-01-13T01:00:40.778Z,18.73
2023-01-13T01:04:56.995Z,19.52
2023-01-13T01:09:15.879Z,21.58
2023-01-13T01:13:32.183Z,20.88
2023-01-13T01:17:48.391Z,19.15
2023-01-13T01:22:04.728Z,21.27
2023-01-13T01:26:26.017Z,18.15
2023-01-13T01:30:42.298Z,18.25
2023-01-13T01:34:58.591Z,19.10
2023-01-13T01:39:14.855Z,18.12
2023-01-13T01:43:59.587Z,18.75
2023-01-13T01:48:15.957Z,18.27
2023-01-13T01:52:36.723Z,19.70
2023-01-13T01:56:53.289Z,18.40
2023-01-13T02:01:10.247Z,19.75
2023-01-13T02:05:26.634Z,19.62
2023-01-13T02:09:42.975Z,20.00
2023-01-13T02:13:59.176Z,19.20
2023-01-13T02:18:26.430Z,18.87
2023-01-13T02:22:57.619Z,19.45
2023-01-13T02:27:27.412Z,19.83
2023-01-13T02:31:49.664Z,21.15
2023-01-13T02:36:28.747Z,19.62
2023-01-13T02:40:56.966Z,20.50
2023-01-13T02:45:21.395Z,21.50
2023-01-13T02:49:45.198Z,21.87
2023-01-13T02:54:07.199Z,21.65
2023-01-13T02:58:29.522Z,20.40
2023-01-13T03:02:45.760Z,21.35
2023-01-13T03:07:25.214Z,20.25
2023-01-13T03:12:04.483Z,21.48
2023-01-13T03:16:57.612Z,20.40
2023-01-13T03:21:21.058Z,20.90
2023-01-13T03:25:42.847Z,21.98
2023-01-13T03:30:01.764Z,20.37
2023-01-13T03:34:22.168Z,20.62
2023-01-13T03:38:44.540Z,20.83
2023-01-13T03:43:27.422Z,20.62
2023-01-13T03:47:51.354Z,20.20
2023-01-13T03:52:10.152Z,20.42
2023-01-13T03:56:36.478Z,19.85
2023-01-13T04:01:03.003Z,19.77
2023-01-13T04:05:19.783Z,21.35
2023-01-13T04:09:41.665Z,21.62
2023-01-13T04:13:58.896Z,20.37
2023-01-13T04:18:19.092Z,21.17
2023-01-13T04:22:35.274Z,20.27
2023-01-13T04:26:51.499Z,22.25
2023-01-13T04:31:07.740Z,19.42
2023-01-13T04:35:23.993Z,21.45
2023-01-13T04:39:40.135Z,21.27
2023-01-13T04:43:56.365Z,20.60
2023-01-13T04:48:13.113Z,19.73
2023-01-13T04:52:29.254Z,20.50
2023-01-13T04:56:45.564Z,21.67
2023-01-13T05:01:01.764Z,21.17
2023-01-13T05:05:18.287Z,21.90
2023-01-13T05:09:34.602Z,21.45
2023-01-13T05:14:09.545Z,20.25
2023-01-13T05:18:26.202Z,20.35
2023-01-13T05:23:00.989Z,18.45
2023-01-13T05:27:17.142Z,18.55
2023-01-13T05:31:33.387Z,21.17
2023-01-13T05:35:49.950Z,21.98
2023-01-13T05:40:25.401Z,19.52
2023-01-13T05:44:41.627Z,20.80
2023-01-13T05:48:59.039Z,20.95
2023-01-13T05:53:15.511Z,19.73
2023-01-13T05:57:31.760Z,19.37
2023-01-13T06:01:47.872Z,20.17
2023-01-13T06:06:04.758Z,21.83
2023-01-13T06:10:20.920Z,19.05
2023-01-13T06:14:42.887Z,18.95
2023-01-13T06:18:59.107Z,18.83
2023-01-13T06:23:15.421Z,19.02
2023-01-13T06:27:31.607Z,17.30
2023-01-13T06:31:47.950Z,18.98
2023-01-13T06:36:11.330Z,19.08
2023-01-13T06:44:44.565Z,19.50
2023-01-13T06:49:00.760Z,18.55
2023-01-13T06:53:17.066Z,18.27
2023-01-13T06:57:33.219Z,19.37
2023-01-13T07:01:49.631Z,18.20
2023-01-13T07:06:06.327Z,17.58
2023-01-13T07:10:22.641Z,16.27
2023-01-13T07:14:57.292Z,16.23
2023-01-13T07:19:13.508Z,16.85
2023-01-13T07:23:31.824Z,16.55
2023-01-13T07:27:48.213Z,17.17
2023-01-13T07:32:04.743Z,17.10
2023-01-13T07:36:22.132Z,17.15
2023-01-13T07:40:40.035Z,15.60
2023-01-13T07:44:56.232Z,17.87
2023-01-13T07:49:13.328Z,16.75
2023-01-13T07:53:29.547Z,17.52
2023-01-13T07:57:45.843Z,15.77
2023-01-13T08:02:02.219Z,16.73
2023-01-13T08:06:19.021Z,17.27
2023-01-13T08:10:35.609Z,17.33
2023-01-13T08:14:53.079Z,16.40
2023-01-13T08:19:09.211Z,17.23
2023-01-13T08:23:25.431Z,16.98
2023-01-13T08:27:41.755Z,17.25
2023-01-13T08:31:58.069Z,17.02
2023-01-13T08:36:14.401Z,17.10
2023-01-13T08:40:30.596Z,17.08
2023-01-13T08:44:46.778Z,16.70
2023-01-13T08:49:03.368Z,17.87
2023-01-13T08:53:19.885Z,15.93
2023-01-13T08:57:36.337Z,18.02
2023-01-13T09:01:52.981Z,17.02
2023-01-13T09:06:09.590Z,17.30
2023-01-13T09:10:25.947Z,17.90
2023-01-13T09:14:42.146Z,17.60
2023-01-13T09:18:58.334Z,17.80
2023-01-13T09:23:14.581Z,18.42
2023-01-13T09:27:30.847Z,16.90
2023-01-13T09:31:47.345Z,16.67
2023-01-13T09:36:03.540Z,17.23
2023-01-13T09:40:22.890Z,17.12
2023-01-13T09:44:58.172Z,16.55
2023-01-13T09:49:27.355Z,17.35
2023-01-13T09:53:56.265Z,16.42
2023-01-13T09:58:19.933Z,15.20
2023-01-13T10:02:59.512Z,16.33
2023-01-13T10:07:15.762Z,15.80
2023-01-13T10:11:55.607Z,17.42
2023-01-13T10:16:11.748Z,16.62
2023-01-13T10:20:40.722Z,16.55
2023-01-13T10:25:20.646Z,16.95
2023-01-13T10:29:37.200Z,17.27
2023-01-13T10:34:06.531Z,17.58
2023-01-13T10:38:24.171Z,17.92
2023-01-13T10:42:41.764Z,18.05
2023-01-13T10:46:59.699Z,18.65
2023-01-13T10:51:28.750Z,24.65
2023-01-13T10:55:59.890Z,20.58
2023-01-13T11:00:36.828Z,20.40
2023-01-13T11:05:09.117Z,17.73
2023-01-13T11:09:26.757Z,17.37
2023-01-13T11:14:03.949Z,17.58
2023-01-13T11:18:25.647Z,16.55
2023-01-13T11:22:55.069Z,16.27
2023-01-13T11:27:26.288Z,15.23
2023-01-13T11:31:48.447Z,14.93
2023-01-13T11:36:12.027Z,14.45
2023-01-13T11:40:45.399Z,14.63
2023-01-13T11:45:21.548Z,14.43
2023-01-13T11:49:38.895Z,14.60
2023-01-13T11:54:02.272Z,15.15
2023-01-13T11:58:29.003Z,14.80
2023-01-13T12:03:13.254Z,14.18
2023-01-13T12:08:08.894Z,15.30
2023-01-13T12:12:47.635Z,13.50
2023-01-13T12:17:08.534Z,14.82
2023-01-13T12:21:38.687Z,14.73
2023-01-13T12:26:03.653Z,14.35
2023-01-13T12:30:26.303Z,15.25
2023-01-13T12:35:07.961Z,15.10
2023-01-13T12:39:53.809Z,15.13
2023-01-13T12:44:22.435Z,14.85
2023-01-13T12:48:59.437Z,13.52
2023-01-13T12:53:34.052Z,15.88
2023-01-13T12:58:17.785Z,14.35
2023-01-13T13:07:07.295Z,14.50
2023-01-13T13:12:03.594Z,15.20
2023-01-13T13:16:27.640Z,15.98
2023-01-13T13:20:54.272Z,13.52
2023-01-13T13:25:25.953Z,16.30
2023-01-13T13:29:50.907Z,15.57
2023-01-13T13:34:34.687Z,15.68
2023-01-13T13:44:00.529Z,15.88
2023-01-13T13:48:28.251Z,16.08
2023-01-13T13:52:52.051Z,15.85
2023-01-13T13:57:39.840Z,14.85
2023-01-13T14:02:02.328Z,15.80
2023-01-13T14:06:24.599Z,16.48
2023-01-13T14:10:43.376Z,16.40
2023-01-13T14:15:00.154Z,16.05
2023-01-13T14:19:47.876Z,16.50
2023-01-13T14:24:14.367Z,16.42
2023-01-13T14:28:40.921Z,17.62
2023-01-13T14:32:57.419Z,17.27
2023-01-13T14:37:29.525Z,16.08
2023-01-13T14:41:51.031Z,18.37
2023-01-13T14:46:09.283Z,19.33
2023-01-13T14:50:33.620Z,18.12
2023-01-13T14:54:53.644Z,18.30
2023-01-13T14:59:33.984Z,16.87
2023-01-13T15:03:51.259Z,18.90
2023-01-13T15:08:17.841Z,18.83
2023-01-13T15:12:41.122Z,17.75
2023-01-13T15:21:16.156Z,18.10
2023-01-13T15:25:36.861Z,18.30
2023-01-13T15:29:53.156Z,19.40
2023-01-13T15:34:09.542Z,18.50
2023-01-13T15:38:26.807Z,19.30
2023-01-13T15:43:01.492Z,18.50
2023-01-13T15:47:18.195Z,18.87
2023-01-13T15:51:34.627Z,19.62
2023-01-13T15:55:53.841Z,20.15
2023-01-13T16:00:18.208Z,18.98
2023-01-13T16:04:34.442Z,18.73
2023-01-13T16:08:50.565Z,19.05
2023-01-13T16:13:06.900Z,17.00
2023-01-13T16:17:25.353Z,19.12
2023-01-13T16:21:43.638Z,19.05
2023-01-13T16:26:00.200Z,19.15
2023-01-13T16:30:23.966Z,19.52
2023-01-13T16:34:40.670Z,18.75
2023-01-13T16:38:57.284Z,19.58
2023-01-13T16:43:14.432Z,18.52
2023-01-13T16:47:30.597Z,19.25
2023-01-13T16:51:46.818Z,20.58
2023-01-13T16:56:03.029Z,19.45
2023-01-13T17:00:21.374Z,20.33
2023-01-13T17:04:37.691Z,18.92
2023-01-13T17:08:54.096Z,18.67
2023-01-13T17:13:16.367Z,17.92
2023-01-13T17:17:33.661Z,19.35
2023-01-13T17:21:53.557Z,19.95
2023-01-13T17:26:27.269Z,20.25
2023-01-13T17:30:44.956Z,19.08
2023-01-13T17:35:03.094Z,16.75
2023-01-13T17:39:29.243Z,19.65
2023-01-13T17:43:45.475Z,19.35
2023-01-13T17:48:02.250Z,20.33
2023-01-13T17:52:18.832Z,20.65
2023-01-13T17:56:36.832Z,19.12
2023-01-13T18:00:53.123Z,20.48
2023-01-13T18:05:10.265Z,19.95
2023-01-13T18:09:26.909Z,18.87
2023-01-13T18:13:43.621Z,19.05
2023-01-13T18:17:59.941Z,18.58
2023-01-13T18:22:34.830Z,20.55
2023-01-13T18:27:09.420Z,18.42
2023-01-13T18:31:27.268Z,18.67
2023-01-13T18:35:43.953Z,19.80
2023-01-13T18:40:00.164Z,19.80
2023-01-13T18:44:16.503Z,18.37
2023-01-13T18:48:32.902Z,18.50
2023-01-13T18:52:49.168Z,19.17
2023-01-13T18:57:05.423Z,18.90
2023-01-13T19:01:26.179Z,19.90
2023-01-13T19:05:43.140Z,19.20
2023-01-13T19:10:02.324Z,19.02
2023-01-13T19:14:38.416Z,18.25
2023-01-13T19:18:54.682Z,19.02
2023-01-13T19:23:11.941Z,18.75
2023-01-13T19:27:28.752Z,18.42
2023-01-13T19:31:44.972Z,19.02
2023-01-13T19:36:03.576Z,20.48
2023-01-13T19:40:20.087Z,17.98
2023-01-13T19:44:54.854Z,18.85
2023-01-13T19:49:11.531Z,18.05
2023-01-13T19:53:28.825Z,18.50
2023-01-13T19:57:44.987Z,18.00
2023-01-13T20:02:04.108Z,18.87
2023-01-13T20:06:20.389Z,18.05
2023-01-13T20:10:41.691Z,17.92
2023-01-13T20:14:58.277Z,20.60
2023-01-13T20:19:14.508Z,23.77
2023-01-13T20:23:31.027Z,19.05
2023-01-13T20:27:48.139Z,19.98
2023-01-13T20:32:04.586Z,18.25
2023-01-13T20:36:37.106Z,18.12
2023-01-13T20:41:23.235Z,16.98
2023-01-13T20:45:40.674Z,17.77
2023-01-13T20:49:56.928Z,18.87
2023-01-13T20:54:13.264Z,17.95
2023-01-13T20:58:29.539Z,18.58
2023-01-13T21:02:45.770Z,17.80
2023-01-13T21:07:01.978Z,19.83
2023-01-13T21:11:39.359Z,19.33
2023-01-13T21:15:55.759Z,19.70
2023-01-13T21:20:14.249Z,20.17
2023-01-13T21:24:30.543Z,22.73
2023-01-13T21:28:47.127Z,21.77
2023-01-13T21:33:06.593Z,20.33
2023-01-13T21:37:27.842Z,20.65
2023-01-13T21:42:02.784Z,19.83
2023-01-13T21:46:37.466Z,20.40
2023-01-13T21:50:53.630Z,22.83
2023-01-13T21:55:20.107Z,21.90
2023-01-13T21:59:36.225Z,21.95
2023-01-13T22:04:10.706Z,21.62
2023-01-13T22:08:26.977Z,19.45
2023-01-13T22:12:46.121Z,21.27
2023-01-13T22:17:04.097Z,19.55
2023-01-13T22:21:20.344Z,19.42
2023-01-13T22:25:36.479Z,20.08
2023-01-13T22:29:53.272Z,20.25
2023-01-13T22:34:11.945Z,19.60
2023-01-13T22:38:28.173Z,22.73
2023-01-13T22:42:44.360Z,20.15
2023-01-13T22:47:00.950Z,17.15
2023-01-13T22:51:18.898Z,20.23
2023-01-13T22:55:35.057Z,21.52
2023-01-13T22:59:51.261Z,18.58
2023-01-13T23:04:07.563Z,18.35
2023-01-13T23:08:23.954Z,18.95
2023-01-13T23:12:40.095Z,18.23
2023-01-13T23:16:56.388Z,19.45
2023-01-13T23:21:15.843Z,18.25
2023-01-13T23:25:32.189Z,18.62
2023-01-13T23:29:49.256Z,17.77
2023-01-13T23:34:05.500Z,17.70
2023-01-13T23:38:21.647Z,16.58
2023-01-13T23:42:37.807Z,17.50
2023-01-13T23:46:53.911Z,15.88
2023-01-13T23:51:12.644Z,18.30
2023-01-13T23:55:28.970Z,22.48
2023-01-13T23:59:45.171Z,23.35
